Flight Track Log - Related Links

Times and Time Zones

All times are in EDT time to prevent confusion due to time zone crossing. See the SWA469 flight status page for this flight to view local times or setup timezone preferences in your user account.

Time Position Orientation Groundspeed Altitude Reporting Facility
EDT Latitude Longitude Course Direction KTS MPH feet Rate Location/Type
Fri 09:10:44 AM 41.6042 -87.8669 203° Southwest 278 320 10,800  Level Chicago Center
Fri 09:11:46 AM 41.5214 -87.8717 182° South 294 338 13,700 2,806 Climbing Chicago Center
Fri 09:12:48 AM 41.4219 -87.8769 182° South 350 403 16,600 2,565 Climbing Chicago Center
Fri 09:13:50 AM 41.3194 -87.8869 184° South 362 417 19,000 2,439 Climbing Chicago Center
Fri 09:14:51 AM 41.2097 -87.8928 182° South 385 443 21,600 2,293 Climbing Chicago Center
Fri 09:15:53 AM 41.0967 -87.8886 178° South 400 460 23,700 2,032 Climbing Chicago Center
Fri 09:16:55 AM 40.9775 -87.8836 178° South 420 483 25,800 1,984 Climbing Chicago Center
Fri 09:17:57 AM 40.8550 -87.8797 179° South 438 504 27,800 2,129 Climbing Chicago Center
Fri 09:18:59 AM 40.7069 -87.8747 179° South 444 511 30,200 2,177 Climbing Chicago Center
Fri 09:20:01 AM 40.5831 -87.8708 179° South 446 513 32,300 1,839 Climbing Chicago Center
Fri 09:21:03 AM 40.4625 -87.8664 178° South 439 505 34,000 1,424 Climbing Chicago Center
Fri 09:21:59 AM 40.3378 -87.8661 180° South 441 507 35,100 1,119 Climbing Indianapolis Center
Fri 09:23:01 AM 40.2106 -87.8597 178° South 451 519 36,200 1,161 Climbing Indianapolis Center
Fri 09:24:03 AM 40.0828 -87.8553 178° South 457 526 37,500 871 Climbing Indianapolis Center
Fri 09:25:05 AM 39.9556 -87.8492 178° South 456 525 38,000 242 Climbing Indianapolis Center
Fri 09:26:07 AM 39.8264 -87.8433 178° South 460 529 38,000  Level Indianapolis Center
Fri 09:27:09 AM 39.6769 -87.8364 178° South 459 528 38,000  Level Indianapolis Center
Fri 09:28:11 AM 39.5483 -87.8314 178° South 460 529 38,000  Level Indianapolis Center
Fri 09:29:13 AM 39.4203 -87.8261 178° South 460 529 38,000  Level Indianapolis Center
Fri 09:30:15 AM 39.3008 -87.8211 178° South 462 532 38,000  Level Indianapolis Center
Fri 09:31:17 AM 39.1733 -87.8144 178° South 459 528 38,000  Level Indianapolis Center
Fri 09:32:19 AM 39.0197 -87.8075 178° South 459 528 38,000  Level Indianapolis Center
Fri 09:33:21 AM 38.8931 -87.8042 179° South 455 524 38,000 145 Level Indianapolis Center
Fri 09:34:23 AM 38.7650 -87.7889 175° South 461 531 38,300 484 Climbing Indianapolis Center
Fri 09:35:25 AM 38.6347 -87.7311 161° South 490 564 39,000 339 Climbing Indianapolis Center
Fri 09:36:27 AM 38.5042 -87.6753 161° South 496 571 39,000  Level Indianapolis Center
Fri 09:37:29 AM 38.3742 -87.6208 162° South 494 568 39,000  Level Indianapolis Center
Fri 09:38:31 AM 38.2181 -87.5525 161° South 496 571 39,000  Level Indianapolis Center
Fri 09:39:33 AM 38.0875 -87.4964 161° South 496 571 39,000  Level Indianapolis Center
Fri 09:40:35 AM 37.9567 -87.4406 161° South 497 572 39,000  Level Indianapolis Center
Fri 09:41:37 AM 37.8278 -87.3850 161° South 491 565 39,000  Level Indianapolis Center
Fri 09:42:39 AM 37.6800 -87.3217 161° South 497 572 39,000  Level Indianapolis Center
Fri 09:43:09 AM 37.6128 -87.2967 164° South 499 574 39,000  Level Memphis Center
Fri 09:44:09 AM 37.4844 -87.2417 161° South 494 568 39,000  Level Memphis Center
Fri 09:45:09 AM 37.3539 -87.1869 162° South 494 568 39,000  Level Memphis Center
Fri 09:46:09 AM 37.2253 -87.1319 161° South 494 568 39,000  Level Memphis Center
Fri 09:47:09 AM 37.1075 -87.0822 161° South 494 568 39,000  Level Memphis Center
Fri 09:48:09 AM 36.9767 -87.0278 162° South 494 568 39,000  Level Memphis Center
Fri 09:49:09 AM 36.8461 -86.9761 162° South 494 568 39,000  Level Memphis Center
Fri 09:50:09 AM 36.7175 -86.9219 161° South 488 562 39,000  Level Memphis Center
Fri 09:51:09 AM 36.5869 -86.8683 162° South 495 570 39,000  Level Memphis Center
Fri 09:52:09 AM 36.4414 -86.8075 161° South 489 563 39,000  Level Memphis Center
Fri 09:53:09 AM 36.3083 -86.7539 162° South 501 577 39,000  Level Memphis Center
Fri 09:54:09 AM 36.1756 -86.7008 162° South 506 582 39,000  Level Memphis Center
Fri 09:55:09 AM 36.0508 -86.6422 159° South 490 564 39,000  Level Memphis Center
Fri 09:56:09 AM 35.9450 -86.5906 158° South 473 544 39,000  Level Memphis Center
Fri 09:57:09 AM 35.8244 -86.5319 158° South 466 536 39,000  Level Memphis Center
Fri 09:59:17 AM 35.5539 -86.4000 158° South 471 542 39,000  Level Atlanta Center
Fri 10:00:17 AM 35.4278 -86.3378 158° South 471 542 39,000  Level Atlanta Center
Fri 10:01:17 AM 35.3056 -86.2808 159° South 471 542 39,000  Level Atlanta Center
Fri 10:02:17 AM 35.1836 -86.2167 157° South 471 542 39,000  Level Atlanta Center
Fri 10:03:17 AM 35.0886 -86.1658 156° South 471 542 39,000  Level Atlanta Center
Fri 10:04:17 AM 34.9333 -86.0986 160° South 483 556 39,000  Level Atlanta Center
Fri 10:05:17 AM 34.8111 -86.0322 156° South 483 556 39,000  Level Atlanta Center
Fri 10:06:17 AM 34.6994 -85.9792 159° South 489 563 39,000  Level Atlanta Center
Fri 10:07:17 AM 34.5731 -85.9183 158° South 489 563 39,000  Level Atlanta Center
Fri 10:08:17 AM 34.4444 -85.8575 159° South 489 563 39,000  Level Atlanta Center
Fri 10:09:17 AM 34.3200 -85.8044 161° South 489 563 39,000  Level Atlanta Center
Fri 10:10:17 AM 34.1936 -85.7439 158° South 480 552 39,000  Level Atlanta Center
Fri 10:11:17 AM 34.0672 -85.6839 159° South 487 560 39,000  Level Atlanta Center
Fri 10:12:17 AM 33.9428 -85.6239 158° South 487 560 39,000  Level Atlanta Center
Fri 10:13:17 AM 33.8139 -85.5664 160° South 487 560 39,000  Level Atlanta Center
Fri 10:14:17 AM 33.6917 -85.5094 159° South 482 555 39,000  Level Atlanta Center
Fri 10:15:17 AM 33.5628 -85.4497 159° South 488 562 39,000  Level Atlanta Center
Fri 10:16:17 AM 33.4425 -85.3906 158° South 480 552 39,000  Level Atlanta Center
Fri 10:17:17 AM 33.3158 -85.3314 159° South 474 545 39,000  Level Atlanta Center
Fri 10:18:17 AM 33.1911 -85.2775 160° South 474 545 39,000  Level Atlanta Center
Fri 10:19:17 AM 33.0561 -85.2136 158° South 474 545 39,000  Level Atlanta Center
Fri 10:20:17 AM 32.9314 -85.1625 161° South 479 551 39,000  Level Atlanta Center
Fri 10:21:17 AM 32.8022 -85.1236 166° South 479 551 39,000  Level Atlanta Center
Fri 10:22:17 AM 32.6794 -85.0778 163° South 465 535 39,000  Level Atlanta Center
Fri 10:23:17 AM 32.5525 -85.0344 164° South 473 544 39,000  Level Atlanta Center
Fri 10:24:52 AM 32.3644 -84.9708 164° South 466 536 39,000  Level Jacksonville Center
Fri 10:25:52 AM 32.2358 -84.9286 164° South 478 550 39,000  Level Jacksonville Center
Fri 10:26:52 AM 32.1092 -84.8867 164° South 478 550 39,000  Level Jacksonville Center
Fri 10:27:52 AM 31.9825 -84.8447 164° South 472 543 39,000  Level Jacksonville Center
Fri 10:28:52 AM 31.8431 -84.8000 165° South 472 543 39,000  Level Jacksonville Center
Fri 10:29:52 AM 31.7164 -84.7561 164° South 472 543 39,000  Level Jacksonville Center
Fri 10:30:52 AM 31.5897 -84.7144 164° South 472 543 39,000  Level Jacksonville Center
Fri 10:31:52 AM 31.4650 -84.6731 164° South 472 543 39,000  Level Jacksonville Center
Fri 10:32:52 AM 31.3383 -84.6317 164° South 472 543 39,000  Level Jacksonville Center
Fri 10:33:52 AM 31.2136 -84.5906 164° South 472 543 39,000  Level Jacksonville Center
Fri 10:34:52 AM 31.0847 -84.5469 164° South 472 543 39,000  Level Jacksonville Center
Fri 10:35:52 AM 30.9578 -84.5061 165° South 472 543 39,000  Level Jacksonville Center
Fri 10:36:52 AM 30.8331 -84.4675 165° South 472 543 39,000  Level Jacksonville Center
Fri 10:37:52 AM 30.7061 -84.4244 164° South 472 543 39,000  Level Jacksonville Center
Fri 10:38:52 AM 30.5794 -84.3839 165° South 472 543 39,000  Level Jacksonville Center
Fri 10:39:52 AM 30.4569 -84.3119 153° Southeast 479 551 39,000  Level Jacksonville Center
Fri 10:40:52 AM 30.3408 -84.2356 150° Southeast 484 557 39,000  Level Jacksonville Center
Fri 10:41:52 AM 30.2247 -84.1594 150° Southeast 484 557 39,000  Level Jacksonville Center
Fri 10:42:51 AM 30.1064 -84.0811 150° Southeast 484 557 39,000  Level Jacksonville Center
Fri 10:43:52 AM 29.9903 -84.0053 151° Southeast 484 557 39,000  Level Jacksonville Center
Fri 10:44:52 AM 29.8739 -83.9297 151° Southeast 479 551 39,000 -150 Level Jacksonville Center
Fri 10:45:52 AM 29.7533 -83.8542 151° Southeast 484 557 38,700 -600 Descending Jacksonville Center
Fri 10:46:52 AM 29.6392 -83.7792 150° Southeast 484 557 37,800 -950 Descending Jacksonville Center
Fri 10:47:52 AM 29.5208 -83.7039 151° Southeast 484 557 36,800 -950 Descending Jacksonville Center
Fri 10:48:52 AM 29.4022 -83.6267 150° Southeast 484 557 35,900 -900 Descending Jacksonville Center
Fri 10:49:52 AM 29.2856 -83.5544 152° Southeast 479 551 35,000 -450 Descending Jacksonville Center
Fri 10:50:52 AM 29.1692 -83.4800 151° Southeast 479 551 35,000  Level Jacksonville Center
Fri 10:51:52 AM 29.0525 -83.4033 150° Southeast 479 551 35,000  Level Jacksonville Center
Fri 10:52:52 AM 28.9358 -83.3314 152° Southeast 479 551 35,000  Level Jacksonville Center
Fri 10:53:52 AM 28.8150 -83.2858 162° South 467 537 35,000  Level Jacksonville Center
Fri 10:54:52 AM 28.6900 -83.2453 164° South 467 537 35,000  Level Jacksonville Center
Fri 10:55:52 AM 28.5669 -83.1975 161° South 467 537 35,000  Level Jacksonville Center
Fri 10:56:52 AM 28.4439 -83.1522 162° South 467 537 35,000 -1,500 Level Jacksonville Center
Fri 10:57:52 AM 28.3231 -83.1094 163° South 461 531 32,000 -2,850 Descending Jacksonville Center
Fri 10:58:52 AM 28.1958 -83.0644 163° South 461 531 29,300 -2,500 Descending Jacksonville Center
Fri 10:59:52 AM 28.0789 -83.0197 161° South 461 531 27,000 -1,735 Descending Jacksonville Center
Fri 11:00:15 AM 28.0419 -83.0028 158° South 455 524 26,900  Descending Miami Center
Fri 11:01:15 AM 27.9314 -82.9519 158° South 449 517 27,000 50 Climbing Miami Center
Fri 11:02:15 AM 27.8189 -82.9036 159° South 436 502 27,000 -300 Level Miami Center
Fri 11:03:15 AM 27.7000 -82.8483 158° South 426 490 26,400 -850 Descending Miami Center
Fri 11:04:15 AM 27.5958 -82.8006 158° South 414 476 25,300 -1,000 Descending Miami Center
Fri 11:05:15 AM 27.4953 -82.7581 159° South 401 461 24,400 -1,150 Descending Miami Center
Fri 11:06:15 AM 27.4072 -82.7161 157° South 387 445 23,000 -1,550 Descending Miami Center
Fri 11:07:15 AM 27.3047 -82.6736 160° South 382 440 21,300 -1,700 Descending Miami Center
Fri 11:08:15 AM 27.2172 -82.6153 149° Southeast 377 434 19,600 -1,600 Descending Miami Center
Fri 11:09:15 AM 27.1383 -82.5531 145° Southeast 364 419 18,100 -1,550 Descending Miami Center
Fri 11:10:15 AM 27.0594 -82.4911 145° Southeast 352 405 16,500 -1,650 Descending Miami Center
Fri 11:11:15 AM 26.9822 -82.4336 146° Southeast 347 399 14,800 -1,700 Descending Miami Center
Fri 11:12:15 AM 26.9053 -82.3694 143° Southeast 337 388 13,100 -1,650 Descending Miami Center
Fri 11:13:15 AM 26.8325 -82.3125 145° Southeast 337 388 11,500 -1,350 Descending Miami Center
Fri 11:14:15 AM 26.7614 -82.2558 145° Southeast 331 381 10,400 -1,300 Descending Miami Center
Fri 11:15:15 AM 26.6944 -82.2061 146° Southeast 314 361 8,900 -1,450 Descending Miami Center
Fri 11:16:15 AM 26.6297 -82.1522 143° Southeast 304 350 7,500 -1,350 Descending Miami Center
Fri 11:17:15 AM 26.5647 -82.1028 146° Southeast 297 342 6,200 -1,300 Descending Miami Center
Fri 11:18:15 AM 26.4950 -82.0672 155° Southeast 284 327 4,900 -1,300 Descending Miami Center
Fri 11:19:15 AM 26.4250 -82.0342 157° South 279 321 3,600 -950 Descending Miami Center
Fri 11:20:15 AM 26.3722 -81.9969 148° Southeast 253 291 3,000 -600 Descending Miami Center
Fri 11:22:00 AM 26.5010 -81.8071 50° Northeast  Level Estimated
Fri 11:29:00 AM 26.5333 -81.7500 50° Northeast  Level FlightAware Approximate
Fri 11:30:00 AM 26.5362 -81.7552 50° Northeast  Level Estimated
Fri 11:31:00 AM 26.5333 -81.7500 50° Northeast  Level FlightAware Approximate
Fri 11:32:00 AM 26.5362 -81.7552 50° Northeast  Level Estimated
Fri 11:33:00 AM 26.5333 -81.7500 50° Northeast  Level FlightAware Approximate
Fri 11:34:00 AM 26.5362 -81.7552 50° Northeast  Level Estimated

Login

Don't have an account? Register now (free) for customized features, flight alerts, and more!